sensor_id;sensor_type;location;lat;lon;timestamp;P1;durP1;ratioP1;P2;durP2;ratioP2
15553;SDS011;7878;44.632;10.942;2022-12-18T00:03:59;10.93;;;4.90;;
15553;SDS011;7878;44.632;10.942;2022-12-18T00:06:26;6.97;;;3.93;;
15553;SDS011;7878;44.632;10.942;2022-12-18T00:08:54;5.10;;;4.40;;
15553;SDS011;7878;44.632;10.942;2022-12-18T00:11:22;8.17;;;4.60;;
15553;SDS011;7878;44.632;10.942;2022-12-18T00:13:49;7.17;;;4.40;;
15553;SDS011;7878;44.632;10.942;2022-12-18T00:16:17;8.57;;;4.07;;
15553;SDS011;7878;44.632;10.942;2022-12-18T00:18:46;9.50;;;5.47;;
15553;SDS011;7878;44.632;10.942;2022-12-18T00:21:16;7.53;;;5.47;;
15553;SDS011;7878;44.632;10.942;2022-12-18T00:23:43;9.47;;;4.97;;
15553;SDS011;7878;44.632;10.942;2022-12-18T00:26:13;7.37;;;4.90;;
15553;SDS011;7878;44.632;10.942;2022-12-18T00:28:47;7.27;;;5.47;;
15553;SDS011;7878;44.632;10.942;2022-12-18T00:31:14;6.87;;;5.23;;
15553;SDS011;7878;44.632;10.942;2022-12-18T00:33:42;6.63;;;5.33;;
15553;SDS011;7878;44.632;10.942;2022-12-18T00:36:13;6.20;;;5.17;;
15553;SDS011;7878;44.632;10.942;2022-12-18T00:38:40;18.23;;;5.47;;
15553;SDS011;7878;44.632;10.942;2022-12-18T00:41:07;5.37;;;4.70;;
15553;SDS011;7878;44.632;10.942;2022-12-18T00:43:34;5.37;;;4.43;;
15553;SDS011;7878;44.632;10.942;2022-12-18T00:46:00;6.13;;;5.00;;
15553;SDS011;7878;44.632;10.942;2022-12-18T00:48:26;7.57;;;6.00;;
15553;SDS011;7878;44.632;10.942;2022-12-18T00:50:52;8.43;;;5.17;;
15553;SDS011;7878;44.632;10.942;2022-12-18T00:53:17;11.57;;;5.67;;
15553;SDS011;7878;44.632;10.942;2022-12-18T00:55:43;7.97;;;5.20;;
15553;SDS011;7878;44.632;10.942;2022-12-18T00:58:10;11.33;;;5.17;;
15553;SDS011;7878;44.632;10.942;2022-12-18T01:00:36;6.13;;;4.67;;
15553;SDS011;7878;44.632;10.942;2022-12-18T01:03:03;7.27;;;5.43;;
15553;SDS011;7878;44.632;10.942;2022-12-18T01:05:29;7.07;;;5.30;;
15553;SDS011;7878;44.632;10.942;2022-12-18T01:07:55;5.57;;;4.67;;
15553;SDS011;7878;44.632;10.942;2022-12-18T01:10:22;6.73;;;4.93;;
15553;SDS011;7878;44.632;10.942;2022-12-18T01:12:48;7.40;;;5.23;;
15553;SDS011;7878;44.632;10.942;2022-12-18T01:15:14;5.83;;;4.53;;
15553;SDS011;7878;44.632;10.942;2022-12-18T01:17:40;5.10;;;4.60;;
15553;SDS011;7878;44.632;10.942;2022-12-18T01:20:07;6.43;;;5.33;;
15553;SDS011;7878;44.632;10.942;2022-12-18T01:22:34;8.63;;;5.03;;
15553;SDS011;7878;44.632;10.942;2022-12-18T01:25:00;7.77;;;4.87;;
15553;SDS011;7878;44.632;10.942;2022-12-18T01:27:26;5.37;;;4.80;;
15553;SDS011;7878;44.632;10.942;2022-12-18T01:29:52;6.93;;;4.90;;
15553;SDS011;7878;44.632;10.942;2022-12-18T01:32:17;6.57;;;5.17;;
15553;SDS011;7878;44.632;10.942;2022-12-18T01:34:43;6.43;;;4.70;;
15553;SDS011;7878;44.632;10.942;2022-12-18T01:37:09;9.50;;;4.90;;
15553;SDS011;7878;44.632;10.942;2022-12-18T01:39:35;5.50;;;4.57;;
15553;SDS011;7878;44.632;10.942;2022-12-18T01:42:05;6.47;;;5.40;;
15553;SDS011;7878;44.632;10.942;2022-12-18T01:47:28;7.40;;;4.77;;
15553;SDS011;7878;44.632;10.942;2022-12-18T01:49:58;6.03;;;5.07;;
15553;SDS011;7878;44.632;10.942;2022-12-18T01:52:29;7.20;;;5.23;;
15553;SDS011;7878;44.632;10.942;2022-12-18T01:54:57;7.73;;;4.97;;
15553;SDS011;7878;44.632;10.942;2022-12-18T01:57:24;6.37;;;4.90;;
15553;SDS011;7878;44.632;10.942;2022-12-18T01:59:51;6.67;;;5.23;;
15553;SDS011;7878;44.632;10.942;2022-12-18T02:02:18;8.73;;;5.63;;
15553;SDS011;7878;44.632;10.942;2022-12-18T02:04:45;10.97;;;5.50;;
15553;SDS011;7878;44.632;10.942;2022-12-18T02:15:26;8.57;;;5.50;;
15553;SDS011;7878;44.632;10.942;2022-12-18T02:18:04;8.90;;;5.90;;
15553;SDS011;7878;44.632;10.942;2022-12-18T02:20:48;8.27;;;5.83;;
15553;SDS011;7878;44.632;10.942;2022-12-18T02:28:25;7.53;;;5.60;;
15553;SDS011;7878;44.632;10.942;2022-12-18T02:30:56;6.40;;;5.20;;
15553;SDS011;7878;44.632;10.942;2022-12-18T02:33:26;7.47;;;5.40;;
15553;SDS011;7878;44.632;10.942;2022-12-18T02:35:54;8.60;;;5.77;;
15553;SDS011;7878;44.632;10.942;2022-12-18T02:38:22;8.40;;;5.80;;
15553;SDS011;7878;44.632;10.942;2022-12-18T02:40:50;7.93;;;5.37;;
15553;SDS011;7878;44.632;10.942;2022-12-18T02:43:18;6.73;;;6.03;;
15553;SDS011;7878;44.632;10.942;2022-12-18T02:45:48;6.97;;;5.70;;
15553;SDS011;7878;44.632;10.942;2022-12-18T02:48:18;8.43;;;6.33;;
15553;SDS011;7878;44.632;10.942;2022-12-18T02:50:51;8.70;;;5.77;;
15553;SDS011;7878;44.632;10.942;2022-12-18T02:56:19;6.43;;;5.27;;
15553;SDS011;7878;44.632;10.942;2022-12-18T02:58:55;7.03;;;5.77;;
15553;SDS011;7878;44.632;10.942;2022-12-18T03:04:02;5.93;;;5.30;;
15553;SDS011;7878;44.632;10.942;2022-12-18T03:06:45;7.60;;;5.27;;
15553;SDS011;7878;44.632;10.942;2022-12-18T03:09:16;9.60;;;5.37;;
15553;SDS011;7878;44.632;10.942;2022-12-18T03:11:46;6.90;;;5.77;;
15553;SDS011;7878;44.632;10.942;2022-12-18T03:14:38;8.47;;;5.30;;
15553;SDS011;7878;44.632;10.942;2022-12-18T03:17:05;5.77;;;5.17;;
15553;SDS011;7878;44.632;10.942;2022-12-18T03:19:35;7.30;;;5.27;;
15553;SDS011;7878;44.632;10.942;2022-12-18T03:22:02;6.23;;;5.40;;
15553;SDS011;7878;44.632;10.942;2022-12-18T03:24:30;5.80;;;4.93;;
15553;SDS011;7878;44.632;10.942;2022-12-18T03:26:59;9.10;;;5.47;;
15553;SDS011;7878;44.632;10.942;2022-12-18T03:29:49;7.07;;;5.50;;
15553;SDS011;7878;44.632;10.942;2022-12-18T03:32:32;6.47;;;5.43;;
15553;SDS011;7878;44.632;10.942;2022-12-18T03:35:02;5.53;;;4.77;;
15553;SDS011;7878;44.632;10.942;2022-12-18T03:37:31;6.63;;;5.70;;
15553;SDS011;7878;44.632;10.942;2022-12-18T03:39:57;6.20;;;5.60;;
15553;SDS011;7878;44.632;10.942;2022-12-18T03:42:25;6.17;;;5.47;;
15553;SDS011;7878;44.632;10.942;2022-12-18T03:47:42;7.27;;;5.43;;
15553;SDS011;7878;44.632;10.942;2022-12-18T03:50:40;9.37;;;5.50;;
15553;SDS011;7878;44.632;10.942;2022-12-18T03:53:26;6.27;;;5.37;;
15553;SDS011;7878;44.632;10.942;2022-12-18T03:56:11;7.97;;;5.27;;
15553;SDS011;7878;44.632;10.942;2022-12-18T03:58:40;6.43;;;5.37;;
15553;SDS011;7878;44.632;10.942;2022-12-18T04:01:08;8.20;;;5.10;;
15553;SDS011;7878;44.632;10.942;2022-12-18T04:03:36;7.20;;;5.47;;
15553;SDS011;7878;44.632;10.942;2022-12-18T04:06:03;5.67;;;5.07;;
15553;SDS011;7878;44.632;10.942;2022-12-18T04:08:30;5.83;;;4.97;;
15553;SDS011;7878;44.632;10.942;2022-12-18T04:10:56;8.53;;;5.37;;
15553;SDS011;7878;44.632;10.942;2022-12-18T04:13:23;7.33;;;6.07;;
15553;SDS011;7878;44.632;10.942;2022-12-18T04:15:50;8.87;;;5.80;;
15553;SDS011;7878;44.632;10.942;2022-12-18T04:18:15;7.13;;;5.80;;
15553;SDS011;7878;44.632;10.942;2022-12-18T04:20:41;7.43;;;5.80;;
15553;SDS011;7878;44.632;10.942;2022-12-18T04:23:07;5.53;;;5.00;;
15553;SDS011;7878;44.632;10.942;2022-12-18T04:25:32;6.10;;;5.03;;
15553;SDS011;7878;44.632;10.942;2022-12-18T04:27:58;7.27;;;5.03;;
15553;SDS011;7878;44.632;10.942;2022-12-18T04:30:24;5.60;;;5.00;;
15553;SDS011;7878;44.632;10.942;2022-12-18T04:32:49;6.10;;;5.10;;
15553;SDS011;7878;44.632;10.942;2022-12-18T04:35:15;6.43;;;5.73;;
15553;SDS011;7878;44.632;10.942;2022-12-18T04:37:41;6.70;;;5.40;;
15553;SDS011;7878;44.632;10.942;2022-12-18T04:40:06;6.07;;;5.30;;
15553;SDS011;7878;44.632;10.942;2022-12-18T04:42:33;6.50;;;5.20;;
15553;SDS011;7878;44.632;10.942;2022-12-18T04:44:58;7.00;;;5.07;;
15553;SDS011;7878;44.632;10.942;2022-12-18T04:47:24;6.67;;;5.07;;
15553;SDS011;7878;44.632;10.942;2022-12-18T04:49:49;5.87;;;5.03;;
15553;SDS011;7878;44.632;10.942;2022-12-18T04:52:15;7.77;;;5.13;;
15553;SDS011;7878;44.632;10.942;2022-12-18T04:54:41;6.13;;;5.53;;
15553;SDS011;7878;44.632;10.942;2022-12-18T04:57:06;6.57;;;5.67;;
15553;SDS011;7878;44.632;10.942;2022-12-18T04:59:32;6.27;;;5.60;;
15553;SDS011;7878;44.632;10.942;2022-12-18T05:01:58;7.80;;;6.30;;
15553;SDS011;7878;44.632;10.942;2022-12-18T05:04:23;6.30;;;5.23;;
15553;SDS011;7878;44.632;10.942;2022-12-18T05:06:49;7.63;;;6.07;;
15553;SDS011;7878;44.632;10.942;2022-12-18T05:09:15;6.80;;;5.77;;
15553;SDS011;7878;44.632;10.942;2022-12-18T05:11:40;8.00;;;5.80;;
15553;SDS011;7878;44.632;10.942;2022-12-18T05:14:06;6.43;;;5.70;;
15553;SDS011;7878;44.632;10.942;2022-12-18T05:16:32;9.33;;;5.73;;
15553;SDS011;7878;44.632;10.942;2022-12-18T05:18:57;8.70;;;6.07;;
15553;SDS011;7878;44.632;10.942;2022-12-18T05:21:23;9.50;;;5.93;;
15553;SDS011;7878;44.632;10.942;2022-12-18T05:23:49;8.07;;;6.87;;
15553;SDS011;7878;44.632;10.942;2022-12-18T05:26:15;6.50;;;5.77;;
15553;SDS011;7878;44.632;10.942;2022-12-18T05:28:42;6.77;;;5.67;;
15553;SDS011;7878;44.632;10.942;2022-12-18T05:31:08;8.03;;;6.33;;
15553;SDS011;7878;44.632;10.942;2022-12-18T05:33:34;11.43;;;6.00;;
15553;SDS011;7878;44.632;10.942;2022-12-18T05:36:01;10.13;;;6.40;;
15553;SDS011;7878;44.632;10.942;2022-12-18T05:38:28;11.57;;;6.27;;
15553;SDS011;7878;44.632;10.942;2022-12-18T05:40:55;7.60;;;6.17;;
15553;SDS011;7878;44.632;10.942;2022-12-18T05:43:22;9.00;;;5.63;;
15553;SDS011;7878;44.632;10.942;2022-12-18T05:45:49;11.90;;;6.33;;
15553;SDS011;7878;44.632;10.942;2022-12-18T05:48:15;6.97;;;5.90;;
15553;SDS011;7878;44.632;10.942;2022-12-18T05:50:42;11.77;;;5.67;;
15553;SDS011;7878;44.632;10.942;2022-12-18T05:53:13;7.23;;;6.40;;
15553;SDS011;7878;44.632;10.942;2022-12-18T05:55:40;8.10;;;5.77;;
15553;SDS011;7878;44.632;10.942;2022-12-18T05:58:07;7.50;;;6.40;;
15553;SDS011;7878;44.632;10.942;2022-12-18T06:00:35;9.20;;;6.10;;
15553;SDS011;7878;44.632;10.942;2022-12-18T06:03:04;6.67;;;5.60;;
15553;SDS011;7878;44.632;10.942;2022-12-18T06:05:34;8.27;;;5.57;;
15553;SDS011;7878;44.632;10.942;2022-12-18T06:08:01;6.27;;;5.53;;
15553;SDS011;7878;44.632;10.942;2022-12-18T06:10:27;6.87;;;5.87;;
15553;SDS011;7878;44.632;10.942;2022-12-18T06:12:52;7.43;;;6.00;;
15553;SDS011;7878;44.632;10.942;2022-12-18T06:15:18;6.07;;;5.40;;
15553;SDS011;7878;44.632;10.942;2022-12-18T06:17:44;6.33;;;5.47;;
15553;SDS011;7878;44.632;10.942;2022-12-18T06:20:09;6.73;;;6.03;;
15553;SDS011;7878;44.632;10.942;2022-12-18T06:22:35;13.53;;;6.47;;
15553;SDS011;7878;44.632;10.942;2022-12-18T06:25:01;6.37;;;5.73;;
15553;SDS011;7878;44.632;10.942;2022-12-18T06:27:26;7.63;;;6.40;;
15553;SDS011;7878;44.632;10.942;2022-12-18T06:29:52;8.40;;;6.27;;
15553;SDS011;7878;44.632;10.942;2022-12-18T06:32:18;6.97;;;5.93;;
15553;SDS011;7878;44.632;10.942;2022-12-18T06:34:43;6.23;;;5.50;;
15553;SDS011;7878;44.632;10.942;2022-12-18T06:37:09;9.00;;;5.83;;
15553;SDS011;7878;44.632;10.942;2022-12-18T06:39:34;13.77;;;6.67;;
15553;SDS011;7878;44.632;10.942;2022-12-18T06:42:00;12.23;;;6.97;;
15553;SDS011;7878;44.632;10.942;2022-12-18T06:44:26;9.73;;;6.03;;
15553;SDS011;7878;44.632;10.942;2022-12-18T06:46:51;6.77;;;6.07;;
15553;SDS011;7878;44.632;10.942;2022-12-18T06:49:17;8.97;;;5.70;;
15553;SDS011;7878;44.632;10.942;2022-12-18T06:51:43;6.57;;;5.67;;
15553;SDS011;7878;44.632;10.942;2022-12-18T06:54:08;8.57;;;6.93;;
15553;SDS011;7878;44.632;10.942;2022-12-18T06:56:34;8.07;;;6.27;;
15553;SDS011;7878;44.632;10.942;2022-12-18T06:59:00;8.67;;;6.37;;
15553;SDS011;7878;44.632;10.942;2022-12-18T07:01:25;7.73;;;6.33;;
15553;SDS011;7878;44.632;10.942;2022-12-18T07:03:54;6.23;;;5.60;;
15553;SDS011;7878;44.632;10.942;2022-12-18T07:06:22;7.77;;;5.63;;
15553;SDS011;7878;44.632;10.942;2022-12-18T07:08:51;7.90;;;5.90;;
15553;SDS011;7878;44.632;10.942;2022-12-18T07:11:18;9.90;;;5.67;;
15553;SDS011;7878;44.632;10.942;2022-12-18T07:13:44;10.33;;;6.30;;
15553;SDS011;7878;44.632;10.942;2022-12-18T07:16:11;7.87;;;5.93;;
15553;SDS011;7878;44.632;10.942;2022-12-18T07:18:38;7.47;;;5.80;;
15553;SDS011;7878;44.632;10.942;2022-12-18T07:21:05;7.80;;;6.20;;
15553;SDS011;7878;44.632;10.942;2022-12-18T07:23:32;9.63;;;6.13;;
15553;SDS011;7878;44.632;10.942;2022-12-18T07:26:03;8.40;;;5.73;;
15553;SDS011;7878;44.632;10.942;2022-12-18T07:28:31;14.10;;;6.10;;
15553;SDS011;7878;44.632;10.942;2022-12-18T07:30:57;8.37;;;5.63;;
15553;SDS011;7878;44.632;10.942;2022-12-18T07:33:23;7.43;;;6.07;;
15553;SDS011;7878;44.632;10.942;2022-12-18T07:35:50;8.07;;;6.07;;
15553;SDS011;7878;44.632;10.942;2022-12-18T07:38:16;8.07;;;6.07;;
15553;SDS011;7878;44.632;10.942;2022-12-18T07:40:41;10.27;;;6.13;;
15553;SDS011;7878;44.632;10.942;2022-12-18T07:43:07;7.80;;;6.20;;
15553;SDS011;7878;44.632;10.942;2022-12-18T07:45:33;8.43;;;6.67;;
15553;SDS011;7878;44.632;10.942;2022-12-18T07:47:58;10.67;;;6.70;;
15553;SDS011;7878;44.632;10.942;2022-12-18T07:50:24;7.60;;;6.37;;
15553;SDS011;7878;44.632;10.942;2022-12-18T07:52:49;8.53;;;6.07;;
15553;SDS011;7878;44.632;10.942;2022-12-18T07:55:15;8.67;;;6.03;;
15553;SDS011;7878;44.632;10.942;2022-12-18T07:57:41;7.50;;;6.50;;
15553;SDS011;7878;44.632;10.942;2022-12-18T08:00:06;8.93;;;5.87;;
15553;SDS011;7878;44.632;10.942;2022-12-18T08:02:33;8.40;;;6.13;;
15553;SDS011;7878;44.632;10.942;2022-12-18T08:04:58;7.43;;;5.93;;
15553;SDS011;7878;44.632;10.942;2022-12-18T08:07:24;7.80;;;6.10;;
15553;SDS011;7878;44.632;10.942;2022-12-18T08:09:50;9.13;;;6.40;;
15553;SDS011;7878;44.632;10.942;2022-12-18T08:12:15;10.90;;;6.27;;
15553;SDS011;7878;44.632;10.942;2022-12-18T08:14:41;7.90;;;6.33;;
15553;SDS011;7878;44.632;10.942;2022-12-18T08:17:07;7.97;;;6.70;;
15553;SDS011;7878;44.632;10.942;2022-12-18T08:19:32;7.63;;;6.57;;
15553;SDS011;7878;44.632;10.942;2022-12-18T08:21:58;11.07;;;6.80;;
15553;SDS011;7878;44.632;10.942;2022-12-18T08:24:24;7.90;;;6.53;;
15553;SDS011;7878;44.632;10.942;2022-12-18T08:26:50;8.87;;;6.40;;
15553;SDS011;7878;44.632;10.942;2022-12-18T08:29:16;8.03;;;6.57;;
15553;SDS011;7878;44.632;10.942;2022-12-18T08:31:42;9.97;;;6.60;;
15553;SDS011;7878;44.632;10.942;2022-12-18T08:34:07;7.97;;;6.33;;
15553;SDS011;7878;44.632;10.942;2022-12-18T08:36:33;7.70;;;6.50;;
15553;SDS011;7878;44.632;10.942;2022-12-18T08:39:00;9.87;;;7.13;;
15553;SDS011;7878;44.632;10.942;2022-12-18T08:41:26;8.37;;;7.43;;
15553;SDS011;7878;44.632;10.942;2022-12-18T08:43:51;12.57;;;8.37;;
15553;SDS011;7878;44.632;10.942;2022-12-18T08:46:37;12.60;;;8.03;;
15553;SDS011;7878;44.632;10.942;2022-12-18T08:49:05;12.83;;;8.73;;
15553;SDS011;7878;44.632;10.942;2022-12-18T08:51:32;12.63;;;7.93;;
15553;SDS011;7878;44.632;10.942;2022-12-18T08:53:58;9.03;;;7.37;;
15553;SDS011;7878;44.632;10.942;2022-12-18T08:56:24;15.53;;;8.40;;
15553;SDS011;7878;44.632;10.942;2022-12-18T08:58:53;9.40;;;8.20;;
15553;SDS011;7878;44.632;10.942;2022-12-18T09:01:19;12.40;;;8.27;;
15553;SDS011;7878;44.632;10.942;2022-12-18T09:03:45;12.83;;;8.80;;
15553;SDS011;7878;44.632;10.942;2022-12-18T09:06:13;11.30;;;8.47;;
15553;SDS011;7878;44.632;10.942;2022-12-18T09:08:43;10.63;;;8.83;;
15553;SDS011;7878;44.632;10.942;2022-12-18T09:11:14;18.90;;;9.80;;
15553;SDS011;7878;44.632;10.942;2022-12-18T09:13:50;13.37;;;8.90;;
15553;SDS011;7878;44.632;10.942;2022-12-18T09:16:17;9.87;;;8.87;;
15553;SDS011;7878;44.632;10.942;2022-12-18T09:18:44;13.03;;;9.07;;
15553;SDS011;7878;44.632;10.942;2022-12-18T09:21:14;10.73;;;9.17;;
15553;SDS011;7878;44.632;10.942;2022-12-18T09:23:41;11.87;;;9.77;;
15553;SDS011;7878;44.632;10.942;2022-12-18T09:26:07;12.77;;;9.53;;
15553;SDS011;7878;44.632;10.942;2022-12-18T09:28:33;14.73;;;9.87;;
15553;SDS011;7878;44.632;10.942;2022-12-18T09:31:03;17.23;;;9.77;;
15553;SDS011;7878;44.632;10.942;2022-12-18T09:33:33;15.13;;;9.63;;
15553;SDS011;7878;44.632;10.942;2022-12-18T09:36:01;11.60;;;9.50;;
15553;SDS011;7878;44.632;10.942;2022-12-18T09:38:28;18.03;;;13.37;;
15553;SDS011;7878;44.632;10.942;2022-12-18T09:40:55;10.57;;;9.37;;
15553;SDS011;7878;44.632;10.942;2022-12-18T09:43:29;9.80;;;8.80;;
15553;SDS011;7878;44.632;10.942;2022-12-18T09:46:08;10.30;;;8.80;;
15553;SDS011;7878;44.632;10.942;2022-12-18T09:48:43;9.67;;;8.33;;
15553;SDS011;7878;44.632;10.942;2022-12-18T09:51:16;15.30;;;11.90;;
15553;SDS011;7878;44.632;10.942;2022-12-18T09:54:05;9.80;;;8.80;;
15553;SDS011;7878;44.632;10.942;2022-12-18T09:56:38;11.80;;;9.00;;
15553;SDS011;7878;44.632;10.942;2022-12-18T09:59:13;16.57;;;8.67;;
15553;SDS011;7878;44.632;10.942;2022-12-18T10:01:44;14.20;;;9.20;;
15553;SDS011;7878;44.632;10.942;2022-12-18T10:04:10;10.13;;;7.83;;
15553;SDS011;7878;44.632;10.942;2022-12-18T10:06:41;14.57;;;9.00;;
15553;SDS011;7878;44.632;10.942;2022-12-18T10:09:28;9.73;;;8.73;;
15553;SDS011;7878;44.632;10.942;2022-12-18T10:19:34;13.05;;;9.07;;
15553;SDS011;7878;44.632;10.942;2022-12-18T10:28:20;9.43;;;8.43;;
15553;SDS011;7878;44.632;10.942;2022-12-18T10:30:46;12.43;;;8.07;;
15553;SDS011;7878;44.632;10.942;2022-12-18T10:33:22;9.93;;;8.50;;
15553;SDS011;7878;44.632;10.942;2022-12-18T10:35:51;8.73;;;7.82;;
15553;SDS011;7878;44.632;10.942;2022-12-18T10:40:53;9.07;;;8.18;;
15553;SDS011;7878;44.632;10.942;2022-12-18T10:45:58;10.82;;;8.10;;
15553;SDS011;7878;44.632;10.942;2022-12-18T10:48:31;12.05;;;8.32;;
15553;SDS011;7878;44.632;10.942;2022-12-18T10:50:58;8.50;;;7.63;;
15553;SDS011;7878;44.632;10.942;2022-12-18T10:53:25;12.27;;;8.57;;
15553;SDS011;7878;44.632;10.942;2022-12-18T10:55:53;10.85;;;8.35;;
15553;SDS011;7878;44.632;10.942;2022-12-18T11:06:09;13.45;;;8.82;;
15553;SDS011;7878;44.632;10.942;2022-12-18T11:08:37;10.13;;;9.02;;
15553;SDS011;7878;44.632;10.942;2022-12-18T11:11:04;12.60;;;9.50;;
15553;SDS011;7878;44.632;10.942;2022-12-18T11:13:41;9.45;;;8.55;;
15553;SDS011;7878;44.632;10.942;2022-12-18T11:16:18;12.70;;;9.27;;
15553;SDS011;7878;44.632;10.942;2022-12-18T11:18:44;17.63;;;8.82;;
15553;SDS011;7878;44.632;10.942;2022-12-18T11:21:11;13.30;;;9.73;;
15553;SDS011;7878;44.632;10.942;2022-12-18T11:23:44;11.05;;;8.75;;
15553;SDS011;7878;44.632;10.942;2022-12-18T11:26:13;14.70;;;9.38;;
15553;SDS011;7878;44.632;10.942;2022-12-18T11:28:40;10.98;;;9.50;;
15553;SDS011;7878;44.632;10.942;2022-12-18T11:31:20;9.27;;;8.48;;
15553;SDS011;7878;44.632;10.942;2022-12-18T11:36:25;10.98;;;8.85;;
15553;SDS011;7878;44.632;10.942;2022-12-18T11:38:57;10.57;;;9.68;;
15553;SDS011;7878;44.632;10.942;2022-12-18T11:44:26;14.02;;;9.13;;
15553;SDS011;7878;44.632;10.942;2022-12-18T11:47:00;12.35;;;10.48;;
15553;SDS011;7878;44.632;10.942;2022-12-18T11:49:35;10.75;;;9.65;;
15553;SDS011;7878;44.632;10.942;2022-12-18T11:54:43;10.57;;;9.55;;
15553;SDS011;7878;44.632;10.942;2022-12-18T12:29:01;10.45;;;9.43;;
15553;SDS011;7878;44.632;10.942;2022-12-18T12:40:03;12.30;;;11.00;;
15553;SDS011;7878;44.632;10.942;2022-12-18T12:45:16;16.02;;;9.77;;
15553;SDS011;7878;44.632;10.942;2022-12-18T12:47:47;10.45;;;9.43;;
15553;SDS011;7878;44.632;10.942;2022-12-18T12:50:16;11.32;;;9.48;;
15553;SDS011;7878;44.632;10.942;2022-12-18T12:52:45;12.82;;;9.95;;
15553;SDS011;7878;44.632;10.942;2022-12-18T12:55:18;13.35;;;10.45;;
15553;SDS011;7878;44.632;10.942;2022-12-18T12:58:00;17.52;;;10.55;;
15553;SDS011;7878;44.632;10.942;2022-12-18T13:01:17;10.75;;;9.50;;
15553;SDS011;7878;44.632;10.942;2022-12-18T13:09:20;11.65;;;10.00;;
15553;SDS011;7878;44.632;10.942;2022-12-18T13:11:46;12.88;;;9.85;;
15553;SDS011;7878;44.632;10.942;2022-12-18T13:14:38;10.35;;;9.35;;
15553;SDS011;7878;44.632;10.942;2022-12-18T13:19:50;14.02;;;8.85;;
15553;SDS011;7878;44.632;10.942;2022-12-18T13:22:25;9.88;;;8.82;;
15553;SDS011;7878;44.632;10.942;2022-12-18T13:24:55;10.57;;;9.48;;
15553;SDS011;7878;44.632;10.942;2022-12-18T13:46:20;11.45;;;9.30;;
15553;SDS011;7878;44.632;10.942;2022-12-18T13:48:57;13.10;;;9.30;;
15553;SDS011;7878;44.632;10.942;2022-12-18T13:51:26;11.55;;;8.93;;
15553;SDS011;7878;44.632;10.942;2022-12-18T13:54:00;13.97;;;9.60;;
15553;SDS011;7878;44.632;10.942;2022-12-18T13:56:47;12.47;;;10.43;;
15553;SDS011;7878;44.632;10.942;2022-12-18T13:59:15;18.87;;;10.10;;
15553;SDS011;7878;44.632;10.942;2022-12-18T14:01:59;13.23;;;9.70;;
15553;SDS011;7878;44.632;10.942;2022-12-18T14:04:32;11.50;;;10.30;;
15553;SDS011;7878;44.632;10.942;2022-12-18T14:09:31;12.53;;;9.70;;
15553;SDS011;7878;44.632;10.942;2022-12-18T14:12:01;15.10;;;10.27;;
15553;SDS011;7878;44.632;10.942;2022-12-18T14:14:46;10.77;;;9.30;;
15553;SDS011;7878;44.632;10.942;2022-12-18T14:17:15;18.13;;;10.20;;
15553;SDS011;7878;44.632;10.942;2022-12-18T14:19:46;13.83;;;10.40;;
15553;SDS011;7878;44.632;10.942;2022-12-18T14:22:14;13.57;;;11.00;;
15553;SDS011;7878;44.632;10.942;2022-12-18T14:24:45;14.17;;;10.90;;
15553;SDS011;7878;44.632;10.942;2022-12-18T14:27:24;11.93;;;10.63;;
15553;SDS011;7878;44.632;10.942;2022-12-18T14:29:50;17.30;;;11.30;;
15553;SDS011;7878;44.632;10.942;2022-12-18T14:32:17;14.63;;;11.23;;
15553;SDS011;7878;44.632;10.942;2022-12-18T14:34:45;14.13;;;11.30;;
15553;SDS011;7878;44.632;10.942;2022-12-18T14:37:15;14.10;;;11.17;;
15553;SDS011;7878;44.632;10.942;2022-12-18T14:39:52;17.83;;;12.13;;
15553;SDS011;7878;44.632;10.942;2022-12-18T14:42:22;16.57;;;11.90;;
15553;SDS011;7878;44.632;10.942;2022-12-18T14:45:13;19.43;;;12.07;;
15553;SDS011;7878;44.632;10.942;2022-12-18T14:47:57;19.70;;;12.70;;
15553;SDS011;7878;44.632;10.942;2022-12-18T14:50:23;20.53;;;14.27;;
15553;SDS011;7878;44.632;10.942;2022-12-18T14:52:49;17.47;;;13.07;;
15553;SDS011;7878;44.632;10.942;2022-12-18T14:55:16;14.93;;;11.87;;
15553;SDS011;7878;44.632;10.942;2022-12-18T14:57:43;21.60;;;12.83;;
15553;SDS011;7878;44.632;10.942;2022-12-18T15:00:16;18.63;;;14.07;;
15553;SDS011;7878;44.632;10.942;2022-12-18T15:02:54;17.20;;;12.83;;
15553;SDS011;7878;44.632;10.942;2022-12-18T15:05:28;20.80;;;13.30;;
15553;SDS011;7878;44.632;10.942;2022-12-18T15:07:55;20.23;;;14.00;;
15553;SDS011;7878;44.632;10.942;2022-12-18T15:20:45;18.43;;;13.23;;
15553;SDS011;7878;44.632;10.942;2022-12-18T15:23:26;18.17;;;14.70;;
15553;SDS011;7878;44.632;10.942;2022-12-18T15:26:00;17.27;;;14.23;;
15553;SDS011;7878;44.632;10.942;2022-12-18T15:28:39;20.87;;;13.30;;
15553;SDS011;7878;44.632;10.942;2022-12-18T15:33:38;20.17;;;13.23;;
15553;SDS011;7878;44.632;10.942;2022-12-18T15:36:10;19.97;;;13.60;;
15553;SDS011;7878;44.632;10.942;2022-12-18T15:38:39;23.07;;;14.10;;
15553;SDS011;7878;44.632;10.942;2022-12-18T15:41:06;18.03;;;13.73;;
15553;SDS011;7878;44.632;10.942;2022-12-18T15:43:38;16.73;;;12.77;;
15553;SDS011;7878;44.632;10.942;2022-12-18T15:46:05;17.67;;;14.67;;
15553;SDS011;7878;44.632;10.942;2022-12-18T15:48:41;17.20;;;13.70;;
15553;SDS011;7878;44.632;10.942;2022-12-18T15:51:11;25.30;;;15.13;;
15553;SDS011;7878;44.632;10.942;2022-12-18T15:53:43;22.47;;;13.70;;
15553;SDS011;7878;44.632;10.942;2022-12-18T15:56:10;20.47;;;13.63;;
15553;SDS011;7878;44.632;10.942;2022-12-18T15:58:56;18.47;;;13.47;;
15553;SDS011;7878;44.632;10.942;2022-12-18T16:01:25;17.80;;;13.20;;
15553;SDS011;7878;44.632;10.942;2022-12-18T16:03:53;17.60;;;13.50;;
15553;SDS011;7878;44.632;10.942;2022-12-18T16:06:20;23.90;;;14.43;;
15553;SDS011;7878;44.632;10.942;2022-12-18T16:08:46;21.93;;;15.17;;
15553;SDS011;7878;44.632;10.942;2022-12-18T16:11:20;17.00;;;13.57;;
15553;SDS011;7878;44.632;10.942;2022-12-18T16:14:03;23.17;;;14.77;;
15553;SDS011;7878;44.632;10.942;2022-12-18T16:16:37;21.27;;;15.17;;
15553;SDS011;7878;44.632;10.942;2022-12-18T16:19:03;24.20;;;15.60;;
15553;SDS011;7878;44.632;10.942;2022-12-18T16:21:29;30.67;;;15.83;;
15553;SDS011;7878;44.632;10.942;2022-12-18T16:23:54;23.00;;;14.97;;
15553;SDS011;7878;44.632;10.942;2022-12-18T16:26:20;26.40;;;16.83;;
15553;SDS011;7878;44.632;10.942;2022-12-18T16:28:46;23.07;;;16.33;;
15553;SDS011;7878;44.632;10.942;2022-12-18T16:31:11;27.23;;;16.83;;
15553;SDS011;7878;44.632;10.942;2022-12-18T16:33:37;25.37;;;17.30;;
15553;SDS011;7878;44.632;10.942;2022-12-18T16:36:02;28.30;;;17.67;;
15553;SDS011;7878;44.632;10.942;2022-12-18T16:38:28;27.10;;;17.93;;
15553;SDS011;7878;44.632;10.942;2022-12-18T16:40:54;30.83;;;18.07;;
15553;SDS011;7878;44.632;10.942;2022-12-18T16:43:38;55.53;;;19.97;;
15553;SDS011;7878;44.632;10.942;2022-12-18T16:46:03;28.53;;;18.87;;
15553;SDS011;7878;44.632;10.942;2022-12-18T16:48:29;24.37;;;16.80;;
15553;SDS011;7878;44.632;10.942;2022-12-18T16:51:04;35.73;;;19.47;;
15553;SDS011;7878;44.632;10.942;2022-12-18T16:53:31;32.73;;;21.10;;
15553;SDS011;7878;44.632;10.942;2022-12-18T16:55:57;30.57;;;20.47;;
15553;SDS011;7878;44.632;10.942;2022-12-18T16:58:23;33.10;;;20.43;;
15553;SDS011;7878;44.632;10.942;2022-12-18T17:00:49;31.43;;;20.33;;
15553;SDS011;7878;44.632;10.942;2022-12-18T17:03:14;39.23;;;21.90;;
15553;SDS011;7878;44.632;10.942;2022-12-18T17:05:40;30.90;;;21.53;;
15553;SDS011;7878;44.632;10.942;2022-12-18T17:08:06;31.53;;;21.33;;
15553;SDS011;7878;44.632;10.942;2022-12-18T17:10:33;31.67;;;22.13;;
15553;SDS011;7878;44.632;10.942;2022-12-18T17:13:00;35.07;;;22.97;;
15553;SDS011;7878;44.632;10.942;2022-12-18T17:15:25;36.40;;;21.70;;
15553;SDS011;7878;44.632;10.942;2022-12-18T17:17:51;41.20;;;23.37;;